sensor_id;sensor_type;location;lat;lon;timestamp;P1;durP1;ratioP1;P2;durP2;ratioP2
53391;SDS011;41667;51.922;8.850;2023-05-07T00:00:47;31.88;;;12.57;;
53391;SDS011;41667;51.922;8.850;2023-05-07T00:03:13;18.55;;;11.55;;
53391;SDS011;41667;51.922;8.850;2023-05-07T00:05:38;19.95;;;12.77;;
53391;SDS011;41667;51.922;8.850;2023-05-07T00:08:04;20.00;;;12.55;;
53391;SDS011;41667;51.922;8.850;2023-05-07T00:10:29;19.05;;;12.27;;
53391;SDS011;41667;51.922;8.850;2023-05-07T00:12:54;18.08;;;12.68;;
53391;SDS011;41667;51.922;8.850;2023-05-07T00:15:20;18.23;;;12.80;;
53391;SDS011;41667;51.922;8.850;2023-05-07T00:17:45;20.85;;;14.38;;
53391;SDS011;41667;51.922;8.850;2023-05-07T00:20:10;22.02;;;13.05;;
53391;SDS011;41667;51.922;8.850;2023-05-07T00:22:35;17.40;;;11.32;;
53391;SDS011;41667;51.922;8.850;2023-05-07T00:25:00;18.23;;;11.57;;
53391;SDS011;41667;51.922;8.850;2023-05-07T00:27:25;20.63;;;12.60;;
53391;SDS011;41667;51.922;8.850;2023-05-07T00:29:50;20.70;;;12.00;;
53391;SDS011;41667;51.922;8.850;2023-05-07T00:32:16;22.63;;;13.63;;
53391;SDS011;41667;51.922;8.850;2023-05-07T00:34:41;17.83;;;12.23;;
53391;SDS011;41667;51.922;8.850;2023-05-07T00:37:06;20.33;;;12.75;;
53391;SDS011;41667;51.922;8.850;2023-05-07T00:39:34;18.33;;;11.10;;
53391;SDS011;41667;51.922;8.850;2023-05-07T00:41:59;20.43;;;11.50;;
53391;SDS011;41667;51.922;8.850;2023-05-07T00:44:25;20.25;;;12.45;;
53391;SDS011;41667;51.922;8.850;2023-05-07T00:46:50;30.02;;;13.38;;
53391;SDS011;41667;51.922;8.850;2023-05-07T00:49:16;21.73;;;13.55;;
53391;SDS011;41667;51.922;8.850;2023-05-07T00:51:41;21.90;;;13.52;;
53391;SDS011;41667;51.922;8.850;2023-05-07T00:54:06;19.73;;;13.18;;
53391;SDS011;41667;51.922;8.850;2023-05-07T00:56:32;19.80;;;12.30;;
53391;SDS011;41667;51.922;8.850;2023-05-07T00:58:57;17.80;;;11.90;;
53391;SDS011;41667;51.922;8.850;2023-05-07T01:01:23;20.30;;;13.67;;
53391;SDS011;41667;51.922;8.850;2023-05-07T01:03:48;19.73;;;13.10;;
53391;SDS011;41667;51.922;8.850;2023-05-07T01:06:13;24.60;;;13.10;;
53391;SDS011;41667;51.922;8.850;2023-05-07T01:08:41;18.65;;;13.93;;
53391;SDS011;41667;51.922;8.850;2023-05-07T01:11:07;20.10;;;13.07;;
53391;SDS011;41667;51.922;8.850;2023-05-07T01:13:33;21.35;;;13.30;;
53391;SDS011;41667;51.922;8.850;2023-05-07T01:15:58;21.13;;;13.13;;
53391;SDS011;41667;51.922;8.850;2023-05-07T01:18:23;19.00;;;13.57;;
53391;SDS011;41667;51.922;8.850;2023-05-07T01:20:48;19.30;;;12.93;;
53391;SDS011;41667;51.922;8.850;2023-05-07T01:23:14;17.83;;;12.32;;
53391;SDS011;41667;51.922;8.850;2023-05-07T01:25:40;16.17;;;11.60;;
53391;SDS011;41667;51.922;8.850;2023-05-07T01:28:05;16.65;;;12.27;;
53391;SDS011;41667;51.922;8.850;2023-05-07T01:30:30;20.73;;;13.13;;
53391;SDS011;41667;51.922;8.850;2023-05-07T01:33:18;22.50;;;12.27;;
53391;SDS011;41667;51.922;8.850;2023-05-07T01:35:42;22.95;;;13.32;;
53391;SDS011;41667;51.922;8.850;2023-05-07T01:38:08;18.60;;;11.35;;
53391;SDS011;41667;51.922;8.850;2023-05-07T01:40:33;20.13;;;13.40;;
53391;SDS011;41667;51.922;8.850;2023-05-07T01:42:59;21.10;;;13.55;;
53391;SDS011;41667;51.922;8.850;2023-05-07T01:45:25;22.85;;;12.95;;
53391;SDS011;41667;51.922;8.850;2023-05-07T01:47:50;20.30;;;13.20;;
53391;SDS011;41667;51.922;8.850;2023-05-07T01:50:16;18.63;;;12.50;;
53391;SDS011;41667;51.922;8.850;2023-05-07T01:52:43;19.95;;;13.00;;
53391;SDS011;41667;51.922;8.850;2023-05-07T01:55:08;22.75;;;12.90;;
53391;SDS011;41667;51.922;8.850;2023-05-07T01:57:33;20.30;;;12.35;;
53391;SDS011;41667;51.922;8.850;2023-05-07T01:59:58;19.02;;;11.90;;
53391;SDS011;41667;51.922;8.850;2023-05-07T02:02:24;17.83;;;12.43;;
53391;SDS011;41667;51.922;8.850;2023-05-07T02:04:49;23.63;;;13.90;;
53391;SDS011;41667;51.922;8.850;2023-05-07T02:07:14;21.40;;;13.47;;
53391;SDS011;41667;51.922;8.850;2023-05-07T02:09:39;23.67;;;13.63;;
53391;SDS011;41667;51.922;8.850;2023-05-07T02:12:04;18.88;;;13.55;;
53391;SDS011;41667;51.922;8.850;2023-05-07T02:14:30;20.65;;;13.27;;
53391;SDS011;41667;51.922;8.850;2023-05-07T02:16:55;18.95;;;12.88;;
53391;SDS011;41667;51.922;8.850;2023-05-07T02:19:20;21.45;;;12.35;;
53391;SDS011;41667;51.922;8.850;2023-05-07T02:21:47;20.02;;;12.25;;
53391;SDS011;41667;51.922;8.850;2023-05-07T02:24:12;22.35;;;13.98;;
53391;SDS011;41667;51.922;8.850;2023-05-07T02:26:37;22.95;;;13.13;;
53391;SDS011;41667;51.922;8.850;2023-05-07T02:29:03;18.48;;;12.55;;
53391;SDS011;41667;51.922;8.850;2023-05-07T02:31:28;21.20;;;14.10;;
53391;SDS011;41667;51.922;8.850;2023-05-07T02:33:53;17.75;;;12.93;;
53391;SDS011;41667;51.922;8.850;2023-05-07T02:36:18;20.53;;;13.00;;
53391;SDS011;41667;51.922;8.850;2023-05-07T02:38:43;22.73;;;12.38;;
53391;SDS011;41667;51.922;8.850;2023-05-07T02:41:08;21.83;;;13.38;;
53391;SDS011;41667;51.922;8.850;2023-05-07T02:43:34;19.33;;;12.65;;
53391;SDS011;41667;51.922;8.850;2023-05-07T02:46:06;21.07;;;13.63;;
53391;SDS011;41667;51.922;8.850;2023-05-07T02:48:32;22.83;;;15.15;;
53391;SDS011;41667;51.922;8.850;2023-05-07T02:50:57;23.92;;;13.20;;
53391;SDS011;41667;51.922;8.850;2023-05-07T02:53:23;20.70;;;12.75;;
53391;SDS011;41667;51.922;8.850;2023-05-07T02:55:50;22.15;;;14.70;;
53391;SDS011;41667;51.922;8.850;2023-05-07T02:58:16;21.90;;;13.27;;
53391;SDS011;41667;51.922;8.850;2023-05-07T03:00:41;25.48;;;13.95;;
53391;SDS011;41667;51.922;8.850;2023-05-07T03:03:06;30.10;;;14.77;;
53391;SDS011;41667;51.922;8.850;2023-05-07T03:05:31;22.00;;;14.00;;
53391;SDS011;41667;51.922;8.850;2023-05-07T03:07:56;22.98;;;14.07;;
53391;SDS011;41667;51.922;8.850;2023-05-07T03:10:21;22.97;;;14.20;;
53391;SDS011;41667;51.922;8.850;2023-05-07T03:12:46;25.08;;;14.10;;
53391;SDS011;41667;51.922;8.850;2023-05-07T03:15:12;21.98;;;13.43;;
53391;SDS011;41667;51.922;8.850;2023-05-07T03:17:37;22.83;;;13.35;;
53391;SDS011;41667;51.922;8.850;2023-05-07T03:20:03;21.92;;;12.10;;
53391;SDS011;41667;51.922;8.850;2023-05-07T03:22:28;24.13;;;14.15;;
53391;SDS011;41667;51.922;8.850;2023-05-07T03:24:53;26.17;;;13.97;;
53391;SDS011;41667;51.922;8.850;2023-05-07T03:27:18;23.00;;;13.95;;
53391;SDS011;41667;51.922;8.850;2023-05-07T03:29:45;23.33;;;13.98;;
53391;SDS011;41667;51.922;8.850;2023-05-07T03:32:10;22.85;;;14.20;;
53391;SDS011;41667;51.922;8.850;2023-05-07T03:34:35;19.53;;;13.80;;
53391;SDS011;41667;51.922;8.850;2023-05-07T03:37:00;22.85;;;13.73;;
53391;SDS011;41667;51.922;8.850;2023-05-07T03:39:25;21.30;;;13.80;;
53391;SDS011;41667;51.922;8.850;2023-05-07T03:41:50;25.85;;;13.77;;
53391;SDS011;41667;51.922;8.850;2023-05-07T03:44:15;22.42;;;14.38;;
53391;SDS011;41667;51.922;8.850;2023-05-07T03:46:41;20.43;;;14.63;;
53391;SDS011;41667;51.922;8.850;2023-05-07T03:49:06;21.35;;;14.55;;
53391;SDS011;41667;51.922;8.850;2023-05-07T03:51:31;21.50;;;13.95;;
53391;SDS011;41667;51.922;8.850;2023-05-07T03:53:56;22.50;;;13.40;;
53391;SDS011;41667;51.922;8.850;2023-05-07T03:56:22;23.50;;;14.23;;
53391;SDS011;41667;51.922;8.850;2023-05-07T03:58:47;23.40;;;14.70;;
53391;SDS011;41667;51.922;8.850;2023-05-07T04:01:12;25.03;;;14.83;;
53391;SDS011;41667;51.922;8.850;2023-05-07T04:03:38;33.70;;;15.20;;
53391;SDS011;41667;51.922;8.850;2023-05-07T04:06:03;27.48;;;14.90;;
53391;SDS011;41667;51.922;8.850;2023-05-07T04:08:28;28.17;;;16.45;;
53391;SDS011;41667;51.922;8.850;2023-05-07T04:10:56;27.87;;;15.20;;
53391;SDS011;41667;51.922;8.850;2023-05-07T04:13:22;25.70;;;14.90;;
53391;SDS011;41667;51.922;8.850;2023-05-07T04:15:47;24.65;;;15.50;;
53391;SDS011;41667;51.922;8.850;2023-05-07T04:18:14;28.77;;;15.80;;
53391;SDS011;41667;51.922;8.850;2023-05-07T04:20:39;23.45;;;15.75;;
53391;SDS011;41667;51.922;8.850;2023-05-07T04:23:04;26.52;;;14.18;;
53391;SDS011;41667;51.922;8.850;2023-05-07T04:25:29;23.38;;;15.52;;
53391;SDS011;41667;51.922;8.850;2023-05-07T04:27:55;23.27;;;14.00;;
53391;SDS011;41667;51.922;8.850;2023-05-07T04:30:20;25.20;;;15.77;;
53391;SDS011;41667;51.922;8.850;2023-05-07T04:32:45;26.08;;;14.98;;
53391;SDS011;41667;51.922;8.850;2023-05-07T04:35:10;24.52;;;13.80;;
53391;SDS011;41667;51.922;8.850;2023-05-07T04:37:36;25.37;;;15.33;;
53391;SDS011;41667;51.922;8.850;2023-05-07T04:40:01;23.75;;;14.85;;
53391;SDS011;41667;51.922;8.850;2023-05-07T04:42:26;27.00;;;15.63;;
53391;SDS011;41667;51.922;8.850;2023-05-07T04:44:52;26.17;;;15.27;;
53391;SDS011;41667;51.922;8.850;2023-05-07T04:47:17;23.35;;;14.48;;
53391;SDS011;41667;51.922;8.850;2023-05-07T04:49:42;27.73;;;15.33;;
53391;SDS011;41667;51.922;8.850;2023-05-07T04:52:08;28.00;;;14.70;;
53391;SDS011;41667;51.922;8.850;2023-05-07T04:54:33;26.40;;;16.05;;
53391;SDS011;41667;51.922;8.850;2023-05-07T04:56:58;28.23;;;15.57;;
53391;SDS011;41667;51.922;8.850;2023-05-07T04:59:23;24.92;;;13.80;;
53391;SDS011;41667;51.922;8.850;2023-05-07T05:01:48;25.10;;;14.30;;
53391;SDS011;41667;51.922;8.850;2023-05-07T05:04:13;25.23;;;15.15;;
53391;SDS011;41667;51.922;8.850;2023-05-07T05:06:39;31.60;;;16.02;;
53391;SDS011;41667;51.922;8.850;2023-05-07T05:09:04;23.77;;;14.77;;
53391;SDS011;41667;51.922;8.850;2023-05-07T05:11:29;25.35;;;15.27;;
53391;SDS011;41667;51.922;8.850;2023-05-07T05:13:55;23.52;;;14.80;;
53391;SDS011;41667;51.922;8.850;2023-05-07T05:16:20;25.00;;;14.90;;
53391;SDS011;41667;51.922;8.850;2023-05-07T05:18:45;25.70;;;14.90;;
53391;SDS011;41667;51.922;8.850;2023-05-07T05:21:10;27.80;;;15.83;;
53391;SDS011;41667;51.922;8.850;2023-05-07T05:23:35;27.58;;;15.48;;
53391;SDS011;41667;51.922;8.850;2023-05-07T05:26:00;21.70;;;13.20;;
53391;SDS011;41667;51.922;8.850;2023-05-07T05:28:25;30.33;;;15.77;;
53391;SDS011;41667;51.922;8.850;2023-05-07T05:30:52;27.85;;;13.88;;
53391;SDS011;41667;51.922;8.850;2023-05-07T05:33:17;25.90;;;15.40;;
53391;SDS011;41667;51.922;8.850;2023-05-07T05:35:42;26.33;;;14.55;;
53391;SDS011;41667;51.922;8.850;2023-05-07T05:38:07;21.93;;;14.13;;
53391;SDS011;41667;51.922;8.850;2023-05-07T05:40:33;28.40;;;14.48;;
53391;SDS011;41667;51.922;8.850;2023-05-07T05:42:58;24.10;;;15.00;;
53391;SDS011;41667;51.922;8.850;2023-05-07T05:45:23;22.63;;;13.93;;
53391;SDS011;41667;51.922;8.850;2023-05-07T05:47:48;27.02;;;14.48;;
53391;SDS011;41667;51.922;8.850;2023-05-07T05:50:14;22.83;;;13.97;;
53391;SDS011;41667;51.922;8.850;2023-05-07T05:52:39;22.40;;;12.90;;
53391;SDS011;41667;51.922;8.850;2023-05-07T05:55:05;28.60;;;15.88;;
53391;SDS011;41667;51.922;8.850;2023-05-07T05:57:31;25.10;;;15.70;;
53391;SDS011;41667;51.922;8.850;2023-05-07T05:59:56;21.47;;;13.57;;
53391;SDS011;41667;51.922;8.850;2023-05-07T06:02:21;25.17;;;15.43;;
53391;SDS011;41667;51.922;8.850;2023-05-07T06:04:46;26.70;;;14.97;;
53391;SDS011;41667;51.922;8.850;2023-05-07T06:07:11;22.70;;;14.40;;
53391;SDS011;41667;51.922;8.850;2023-05-07T06:09:36;23.73;;;15.07;;
53391;SDS011;41667;51.922;8.850;2023-05-07T06:12:02;21.60;;;13.10;;
53391;SDS011;41667;51.922;8.850;2023-05-07T06:14:27;27.25;;;15.45;;
53391;SDS011;41667;51.922;8.850;2023-05-07T06:16:52;24.00;;;14.35;;
53391;SDS011;41667;51.922;8.850;2023-05-07T06:19:17;23.08;;;13.80;;
53391;SDS011;41667;51.922;8.850;2023-05-07T06:21:47;22.73;;;13.13;;
53391;SDS011;41667;51.922;8.850;2023-05-07T06:24:13;21.20;;;12.52;;
53391;SDS011;41667;51.922;8.850;2023-05-07T06:26:38;19.17;;;11.40;;
53391;SDS011;41667;51.922;8.850;2023-05-07T06:29:03;18.48;;;12.05;;
53391;SDS011;41667;51.922;8.850;2023-05-07T06:31:29;22.43;;;12.43;;
53391;SDS011;41667;51.922;8.850;2023-05-07T06:33:55;20.30;;;11.25;;
53391;SDS011;41667;51.922;8.850;2023-05-07T06:36:20;21.45;;;11.18;;
53391;SDS011;41667;51.922;8.850;2023-05-07T06:38:45;17.25;;;11.23;;
53391;SDS011;41667;51.922;8.850;2023-05-07T06:41:10;21.23;;;12.07;;
53391;SDS011;41667;51.922;8.850;2023-05-07T06:43:35;18.15;;;10.95;;
53391;SDS011;41667;51.922;8.850;2023-05-07T06:46:01;20.33;;;11.93;;
53391;SDS011;41667;51.922;8.850;2023-05-07T06:48:26;15.70;;;9.80;;
53391;SDS011;41667;51.922;8.850;2023-05-07T06:50:51;21.50;;;11.90;;
53391;SDS011;41667;51.922;8.850;2023-05-07T06:53:16;16.98;;;10.05;;
53391;SDS011;41667;51.922;8.850;2023-05-07T06:55:41;16.92;;;10.27;;
53391;SDS011;41667;51.922;8.850;2023-05-07T06:58:06;16.27;;;11.00;;
53391;SDS011;41667;51.922;8.850;2023-05-07T07:00:32;20.25;;;11.15;;
53391;SDS011;41667;51.922;8.850;2023-05-07T07:02:57;19.93;;;9.80;;
53391;SDS011;41667;51.922;8.850;2023-05-07T07:05:22;16.23;;;10.55;;
53391;SDS011;41667;51.922;8.850;2023-05-07T07:07:47;19.03;;;11.60;;
53391;SDS011;41667;51.922;8.850;2023-05-07T07:10:20;18.23;;;10.73;;
53391;SDS011;41667;51.922;8.850;2023-05-07T07:12:45;15.90;;;9.68;;
53391;SDS011;41667;51.922;8.850;2023-05-07T07:15:10;15.55;;;9.05;;
53391;SDS011;41667;51.922;8.850;2023-05-07T07:17:36;18.25;;;10.57;;
53391;SDS011;41667;51.922;8.850;2023-05-07T07:20:01;19.85;;;10.32;;
53391;SDS011;41667;51.922;8.850;2023-05-07T07:22:27;15.65;;;9.20;;
53391;SDS011;41667;51.922;8.850;2023-05-07T07:24:52;15.98;;;10.93;;
53391;SDS011;41667;51.922;8.850;2023-05-07T07:27:18;15.07;;;10.10;;
53391;SDS011;41667;51.922;8.850;2023-05-07T07:29:43;14.88;;;9.32;;
53391;SDS011;41667;51.922;8.850;2023-05-07T07:32:08;13.55;;;9.02;;
53391;SDS011;41667;51.922;8.850;2023-05-07T07:34:33;12.90;;;8.73;;
53391;SDS011;41667;51.922;8.850;2023-05-07T07:36:58;15.00;;;9.37;;
53391;SDS011;41667;51.922;8.850;2023-05-07T07:39:23;14.43;;;9.85;;
53391;SDS011;41667;51.922;8.850;2023-05-07T07:41:48;14.95;;;9.93;;
53391;SDS011;41667;51.922;8.850;2023-05-07T07:44:13;11.65;;;8.52;;
53391;SDS011;41667;51.922;8.850;2023-05-07T07:46:39;17.42;;;9.60;;
53391;SDS011;41667;51.922;8.850;2023-05-07T07:49:04;15.68;;;9.07;;
53391;SDS011;41667;51.922;8.850;2023-05-07T07:51:29;14.75;;;9.23;;
53391;SDS011;41667;51.922;8.850;2023-05-07T07:53:55;15.18;;;8.50;;
53391;SDS011;41667;51.922;8.850;2023-05-07T07:56:22;13.82;;;9.07;;
53391;SDS011;41667;51.922;8.850;2023-05-07T07:58:47;13.93;;;8.73;;
53391;SDS011;41667;51.922;8.850;2023-05-07T08:01:12;13.13;;;8.43;;
53391;SDS011;41667;51.922;8.850;2023-05-07T08:03:37;13.38;;;8.18;;
53391;SDS011;41667;51.922;8.850;2023-05-07T08:06:03;13.33;;;8.20;;
53391;SDS011;41667;51.922;8.850;2023-05-07T08:08:28;11.97;;;8.03;;
53391;SDS011;41667;51.922;8.850;2023-05-07T08:10:53;12.88;;;8.02;;
53391;SDS011;41667;51.922;8.850;2023-05-07T08:13:18;14.47;;;8.93;;
53391;SDS011;41667;51.922;8.850;2023-05-07T08:15:43;15.97;;;9.17;;
53391;SDS011;41667;51.922;8.850;2023-05-07T08:18:08;14.50;;;8.82;;
53391;SDS011;41667;51.922;8.850;2023-05-07T08:20:34;13.35;;;8.65;;
53391;SDS011;41667;51.922;8.850;2023-05-07T08:23:04;14.15;;;8.13;;
53391;SDS011;41667;51.922;8.850;2023-05-07T08:25:29;12.63;;;8.93;;
53391;SDS011;41667;51.922;8.850;2023-05-07T08:27:54;13.80;;;8.15;;
53391;SDS011;41667;51.922;8.850;2023-05-07T08:30:19;13.15;;;8.63;;
53391;SDS011;41667;51.922;8.850;2023-05-07T08:32:44;14.07;;;8.43;;
53391;SDS011;41667;51.922;8.850;2023-05-07T08:35:10;11.43;;;7.77;;
53391;SDS011;41667;51.922;8.850;2023-05-07T08:37:35;11.73;;;8.02;;
53391;SDS011;41667;51.922;8.850;2023-05-07T08:40:00;14.43;;;7.93;;
53391;SDS011;41667;51.922;8.850;2023-05-07T08:42:25;14.80;;;8.10;;
53391;SDS011;41667;51.922;8.850;2023-05-07T08:44:52;19.15;;;8.35;;
53391;SDS011;41667;51.922;8.850;2023-05-07T08:47:20;13.80;;;7.43;;
53391;SDS011;41667;51.922;8.850;2023-05-07T08:49:47;12.13;;;8.30;;
53391;SDS011;41667;51.922;8.850;2023-05-07T08:52:13;12.25;;;8.35;;
53391;SDS011;41667;51.922;8.850;2023-05-07T08:54:38;11.13;;;7.80;;
53391;SDS011;41667;51.922;8.850;2023-05-07T08:57:03;10.43;;;8.03;;
53391;SDS011;41667;51.922;8.850;2023-05-07T08:59:29;11.70;;;7.47;;
53391;SDS011;41667;51.922;8.850;2023-05-07T09:01:54;10.63;;;7.97;;
53391;SDS011;41667;51.922;8.850;2023-05-07T09:04:20;13.57;;;7.93;;
53391;SDS011;41667;51.922;8.850;2023-05-07T09:06:45;15.32;;;8.85;;
53391;SDS011;41667;51.922;8.850;2023-05-07T09:09:10;12.00;;;7.90;;
53391;SDS011;41667;51.922;8.850;2023-05-07T09:11:38;13.27;;;9.02;;
53391;SDS011;41667;51.922;8.850;2023-05-07T09:14:04;12.50;;;7.03;;
53391;SDS011;41667;51.922;8.850;2023-05-07T09:16:29;13.00;;;8.43;;
53391;SDS011;41667;51.922;8.850;2023-05-07T09:18:56;13.82;;;7.40;;
53391;SDS011;41667;51.922;8.850;2023-05-07T09:21:21;15.27;;;8.32;;
53391;SDS011;41667;51.922;8.850;2023-05-07T09:23:50;12.75;;;7.82;;
53391;SDS011;41667;51.922;8.850;2023-05-07T09:26:16;13.05;;;7.63;;
53391;SDS011;41667;51.922;8.850;2023-05-07T09:28:41;11.90;;;7.40;;
53391;SDS011;41667;51.922;8.850;2023-05-07T09:31:07;13.75;;;7.55;;
53391;SDS011;41667;51.922;8.850;2023-05-07T09:33:32;12.13;;;7.93;;
53391;SDS011;41667;51.922;8.850;2023-05-07T09:35:57;12.13;;;7.53;;
53391;SDS011;41667;51.922;8.850;2023-05-07T09:38:23;12.23;;;7.35;;
53391;SDS011;41667;51.922;8.850;2023-05-07T09:40:48;11.48;;;6.65;;
53391;SDS011;41667;51.922;8.850;2023-05-07T09:43:26;13.63;;;7.38;;
53391;SDS011;41667;51.922;8.850;2023-05-07T09:45:51;13.10;;;7.15;;
53391;SDS011;41667;51.922;8.850;2023-05-07T09:48:16;10.60;;;7.57;;
53391;SDS011;41667;51.922;8.850;2023-05-07T09:50:48;11.05;;;7.03;;
53391;SDS011;41667;51.922;8.850;2023-05-07T09:53:13;13.10;;;7.28;;
53391;SDS011;41667;51.922;8.850;2023-05-07T09:55:39;11.52;;;7.47;;
53391;SDS011;41667;51.922;8.850;2023-05-07T09:58:04;10.25;;;7.60;;
53391;SDS011;41667;51.922;8.850;2023-05-07T10:00:31;13.10;;;7.07;;
53391;SDS011;41667;51.922;8.850;2023-05-07T10:02:57;10.50;;;6.82;;
53391;SDS011;41667;51.922;8.850;2023-05-07T10:05:22;12.20;;;7.28;;
53391;SDS011;41667;51.922;8.850;2023-05-07T10:07:48;14.13;;;7.35;;
53391;SDS011;41667;51.922;8.850;2023-05-07T10:10:13;8.30;;;6.15;;
53391;SDS011;41667;51.922;8.850;2023-05-07T10:12:39;10.38;;;6.60;;
53391;SDS011;41667;51.922;8.850;2023-05-07T10:15:08;9.23;;;6.72;;
53391;SDS011;41667;51.922;8.850;2023-05-07T10:17:35;11.27;;;6.57;;
53391;SDS011;41667;51.922;8.850;2023-05-07T10:20:00;10.15;;;6.68;;
53391;SDS011;41667;51.922;8.850;2023-05-07T10:22:25;10.63;;;6.95;;
53391;SDS011;41667;51.922;8.850;2023-05-07T10:24:52;10.98;;;6.18;;
53391;SDS011;41667;51.922;8.850;2023-05-07T10:27:19;9.32;;;6.05;;
53391;SDS011;41667;51.922;8.850;2023-05-07T10:29:53;10.68;;;6.53;;
53391;SDS011;41667;51.922;8.850;2023-05-07T10:32:37;9.88;;;6.63;;
53391;SDS011;41667;51.922;8.850;2023-05-07T10:35:04;7.45;;;6.05;;
53391;SDS011;41667;51.922;8.850;2023-05-07T10:37:31;7.03;;;5.43;;
53391;SDS011;41667;51.922;8.850;2023-05-07T10:39:56;8.30;;;5.50;;
53391;SDS011;41667;51.922;8.850;2023-05-07T10:42:22;7.47;;;5.20;;
53391;SDS011;41667;51.922;8.850;2023-05-07T10:44:47;7.72;;;6.05;;
53391;SDS011;41667;51.922;8.850;2023-05-07T10:47:13;12.32;;;5.80;;
53391;SDS011;41667;51.922;8.850;2023-05-07T10:52:11;7.55;;;5.38;;
53391;SDS011;41667;51.922;8.850;2023-05-07T10:54:36;8.85;;;5.55;;
53391;SDS011;41667;51.922;8.850;2023-05-07T10:57:31;6.63;;;5.23;;
53391;SDS011;41667;51.922;8.850;2023-05-07T10:59:46;8.27;;;4.95;;
53391;SDS011;41667;51.922;8.850;2023-05-07T11:02:11;7.30;;;4.75;;
53391;SDS011;41667;51.922;8.850;2023-05-07T11:04:39;5.80;;;4.10;;
53391;SDS011;41667;51.922;8.850;2023-05-07T11:12:15;5.38;;;4.65;;
53391;SDS011;41667;51.922;8.850;2023-05-07T11:17:06;6.18;;;4.50;;
53391;SDS011;41667;51.922;8.850;2023-05-07T11:19:50;6.22;;;4.63;;
53391;SDS011;41667;51.922;8.850;2023-05-07T11:24:59;4.53;;;3.90;;
53391;SDS011;41667;51.922;8.850;2023-05-07T11:27:25;5.88;;;4.13;;
53391;SDS011;41667;51.922;8.850;2023-05-07T11:29:50;5.00;;;3.53;;
53391;SDS011;41667;51.922;8.850;2023-05-07T11:32:22;6.50;;;4.00;;
53391;SDS011;41667;51.922;8.850;2023-05-07T11:34:47;4.25;;;3.83;;
53391;SDS011;41667;51.922;8.850;2023-05-07T11:37:19;4.13;;;3.30;;
53391;SDS011;41667;51.922;8.850;2023-05-07T11:39:44;7.55;;;3.90;;
53391;SDS011;41667;51.922;8.850;2023-05-07T11:42:31;5.57;;;3.77;;
53391;SDS011;41667;51.922;8.850;2023-05-07T11:44:55;6.18;;;3.80;;
53391;SDS011;41667;51.922;8.850;2023-05-07T11:47:20;6.20;;;3.88;;
53391;SDS011;41667;51.922;8.850;2023-05-07T11:49:49;4.47;;;3.45;;
53391;SDS011;41667;51.922;8.850;2023-05-07T11:52:15;4.68;;;3.22;;
53391;SDS011;41667;51.922;8.850;2023-05-07T11:54:40;4.90;;;3.50;;
53391;SDS011;41667;51.922;8.850;2023-05-07T11:57:05;4.82;;;3.45;;
53391;SDS011;41667;51.922;8.850;2023-05-07T11:59:41;4.25;;;3.38;;
53391;SDS011;41667;51.922;8.850;2023-05-07T12:02:06;4.45;;;3.90;;
53391;SDS011;41667;51.922;8.850;2023-05-07T12:04:32;6.18;;;3.28;;
53391;SDS011;41667;51.922;8.850;2023-05-07T12:06:57;5.72;;;3.15;;
53391;SDS011;41667;51.922;8.850;2023-05-07T12:09:22;4.40;;;3.53;;
53391;SDS011;41667;51.922;8.850;2023-05-07T12:11:47;5.03;;;4.07;;
53391;SDS011;41667;51.922;8.850;2023-05-07T12:14:13;5.80;;;4.07;;
53391;SDS011;41667;51.922;8.850;2023-05-07T12:16:39;4.43;;;3.30;;
53391;SDS011;41667;51.922;8.850;2023-05-07T12:19:04;5.68;;;3.58;;
53391;SDS011;41667;51.922;8.850;2023-05-07T12:21:31;3.83;;;3.42;;
53391;SDS011;41667;51.922;8.850;2023-05-07T12:23:56;4.77;;;3.57;;
53391;SDS011;41667;51.922;8.850;2023-05-07T12:26:21;6.80;;;3.07;;
53391;SDS011;41667;51.922;8.850;2023-05-07T12:28:46;7.38;;;4.28;;
53391;SDS011;41667;51.922;8.850;2023-05-07T12:31:12;4.17;;;3.40;;
53391;SDS011;41667;51.922;8.850;2023-05-07T12:33:39;4.85;;;3.97;;
53391;SDS011;41667;51.922;8.850;2023-05-07T12:36:05;4.88;;;3.10;;
53391;SDS011;41667;51.922;8.850;2023-05-07T12:38:36;3.83;;;3.40;;
53391;SDS011;41667;51.922;8.850;2023-05-07T12:41:01;5.25;;;3.42;;
53391;SDS011;41667;51.922;8.850;2023-05-07T12:43:27;5.47;;;3.78;;
53391;SDS011;41667;51.922;8.850;2023-05-07T12:45:53;4.47;;;3.58;;
53391;SDS011;41667;51.922;8.850;2023-05-07T12:48:19;4.47;;;3.85;;
53391;SDS011;41667;51.922;8.850;2023-05-07T12:50:45;4.25;;;3.47;;
53391;SDS011;41667;51.922;8.850;2023-05-07T12:53:11;4.77;;;4.13;;
53391;SDS011;41667;51.922;8.850;2023-05-07T12:55:47;4.68;;;3.90;;
53391;SDS011;41667;51.922;8.850;2023-05-07T12:58:18;4.15;;;3.10;;
53391;SDS011;41667;51.922;8.850;2023-05-07T13:00:44;5.47;;;3.80;;
53391;SDS011;41667;51.922;8.850;2023-05-07T13:03:10;4.60;;;3.72;;
53391;SDS011;41667;51.922;8.850;2023-05-07T13:05:35;7.10;;;3.65;;
53391;SDS011;41667;51.922;8.850;2023-05-07T13:08:00;4.90;;;3.83;;
53391;SDS011;41667;51.922;8.850;2023-05-07T13:10:26;4.63;;;3.67;;
53391;SDS011;41667;51.922;8.850;2023-05-07T13:12:51;7.57;;;4.05;;
53391;SDS011;41667;51.922;8.850;2023-05-07T13:15:16;6.25;;;3.78;;
53391;SDS011;41667;51.922;8.850;2023-05-07T13:17:42;4.55;;;4.15;;
53391;SDS011;41667;51.922;8.850;2023-05-07T13:20:08;5.70;;;4.23;;
53391;SDS011;41667;51.922;8.850;2023-05-07T13:22:34;4.82;;;4.43;;
53391;SDS011;41667;51.922;8.850;2023-05-07T13:24:59;4.07;;;3.67;;
53391;SDS011;41667;51.922;8.850;2023-05-07T13:27:24;5.65;;;4.55;;
53391;SDS011;41667;51.922;8.850;2023-05-07T13:29:56;5.07;;;4.57;;
53391;SDS011;41667;51.922;8.850;2023-05-07T13:32:22;5.93;;;5.15;;
53391;SDS011;41667;51.922;8.850;2023-05-07T13:34:47;7.13;;;4.40;;
53391;SDS011;41667;51.922;8.850;2023-05-07T13:37:12;6.40;;;4.80;;
53391;SDS011;41667;51.922;8.850;2023-05-07T13:39:37;5.85;;;5.10;;
53391;SDS011;41667;51.922;8.850;2023-05-07T13:42:02;4.78;;;4.28;;
53391;SDS011;41667;51.922;8.850;2023-05-07T13:44:27;5.50;;;4.72;;
53391;SDS011;41667;51.922;8.850;2023-05-07T13:46:52;5.72;;;4.93;;
53391;SDS011;41667;51.922;8.850;2023-05-07T13:49:17;6.15;;;4.78;;
53391;SDS011;41667;51.922;8.850;2023-05-07T13:51:43;7.05;;;5.13;;
53391;SDS011;41667;51.922;8.850;2023-05-07T13:54:08;7.30;;;5.28;;
53391;SDS011;41667;51.922;8.850;2023-05-07T13:56:33;5.03;;;4.43;;
53391;SDS011;41667;51.922;8.850;2023-05-07T13:58:58;5.10;;;4.60;;
53391;SDS011;41667;51.922;8.850;2023-05-07T14:01:23;5.73;;;4.83;;
53391;SDS011;41667;51.922;8.850;2023-05-07T14:03:49;5.67;;;5.07;;
53391;SDS011;41667;51.922;8.850;2023-05-07T14:06:14;7.07;;;5.73;;
53391;SDS011;41667;51.922;8.850;2023-05-07T14:08:39;6.57;;;5.25;;
53391;SDS011;41667;51.922;8.850;2023-05-07T14:11:04;7.13;;;5.67;;
53391;SDS011;41667;51.922;8.850;2023-05-07T14:13:29;5.82;;;4.97;;
53391;SDS011;41667;51.922;8.850;2023-05-07T14:15:55;8.80;;;6.10;;
53391;SDS011;41667;51.922;8.850;2023-05-07T14:18:20;8.73;;;5.20;;
53391;SDS011;41667;51.922;8.850;2023-05-07T14:20:45;6.53;;;5.43;;
53391;SDS011;41667;51.922;8.850;2023-05-07T14:23:12;6.30;;;4.85;;
53391;SDS011;41667;51.922;8.850;2023-05-07T14:25:37;5.28;;;4.78;;
53391;SDS011;41667;51.922;8.850;2023-05-07T14:28:03;6.55;;;5.85;;
53391;SDS011;41667;51.922;8.850;2023-05-07T14:30:28;7.83;;;7.03;;
53391;SDS011;41667;51.922;8.850;2023-05-07T14:32:53;7.13;;;5.80;;
53391;SDS011;41667;51.922;8.850;2023-05-07T14:35:18;7.17;;;6.17;;